createdAt,value
2022-12-20T00:01:25.344Z,11.40
2022-12-20T00:03:53.598Z,11.50
2022-12-20T00:06:21.641Z,11.50
2022-12-20T00:08:53.879Z,11.50
2022-12-20T00:11:23.701Z,11.50
2022-12-20T00:13:50.947Z,11.60
2022-12-20T00:16:25.874Z,11.60
2022-12-20T00:19:01.137Z,11.60
2022-12-20T00:21:29.937Z,11.70
2022-12-20T00:23:57.400Z,11.60
2022-12-20T00:26:29.817Z,11.60
2022-12-20T00:28:57.561Z,11.60
2022-12-20T00:31:25.757Z,11.50
2022-12-20T00:33:54.552Z,11.60
2022-12-20T00:36:22.993Z,11.60
2022-12-20T00:38:51.908Z,11.60
2022-12-20T00:41:21.738Z,11.60
2022-12-20T00:43:49.149Z,11.50
2022-12-20T00:46:17.706Z,11.50
2022-12-20T00:48:44.754Z,11.60
2022-12-20T00:51:14.421Z,11.60
2022-12-20T00:53:41.670Z,11.60
2022-12-20T00:56:09.279Z,11.60
2022-12-20T00:58:38.586Z,11.60
2022-12-20T01:01:14.332Z,11.50
2022-12-20T01:03:41.176Z,11.60
2022-12-20T01:06:08.233Z,11.60
2022-12-20T01:08:35.012Z,11.70
2022-12-20T01:11:13.731Z,11.60
2022-12-20T01:13:44.024Z,11.60
2022-12-20T01:16:41.134Z,11.70
2022-12-20T01:19:10.456Z,11.70
2022-12-20T01:21:38.248Z,11.70
2022-12-20T01:24:05.617Z,11.70
2022-12-20T01:26:32.309Z,11.70
2022-12-20T01:29:00.632Z,11.80
2022-12-20T01:31:28.953Z,11.80
2022-12-20T01:33:55.816Z,11.80
2022-12-20T01:36:25.371Z,11.80
2022-12-20T01:39:03.711Z,11.90
2022-12-20T01:41:32.052Z,11.80
2022-12-20T01:44:05.659Z,11.80
2022-12-20T01:46:39.680Z,11.80
2022-12-20T01:49:17.387Z,11.70
2022-12-20T01:51:56.504Z,11.80
2022-12-20T01:54:48.934Z,11.90
2022-12-20T01:57:26.622Z,11.80
2022-12-20T01:59:55.409Z,11.70
2022-12-20T02:02:22.904Z,11.80
2022-12-20T02:04:49.717Z,11.80
2022-12-20T02:07:21.981Z,11.80
2022-12-20T02:09:49.969Z,11.70
2022-12-20T02:12:21.532Z,11.80
2022-12-20T02:14:54.159Z,11.80
2022-12-20T02:17:52.182Z,11.80
2022-12-20T02:20:18.907Z,11.60
2022-12-20T02:23:19.007Z,11.60
2022-12-20T02:26:23.487Z,11.60
2022-12-20T02:29:33.861Z,11.60
2022-12-20T02:32:08.519Z,11.50
2022-12-20T02:34:37.608Z,11.40
2022-12-20T02:37:04.792Z,11.30
2022-12-20T02:39:32.936Z,11.20
2022-12-20T02:42:07.724Z,11.10
2022-12-20T02:44:56.334Z,11.00
2022-12-20T02:47:40.570Z,11.00
2022-12-20T02:50:08.995Z,11.00
2022-12-20T02:52:36.561Z,11.00
2022-12-20T02:55:04.863Z,10.90
2022-12-20T02:57:59.692Z,11.00
2022-12-20T03:00:32.560Z,11.00
2022-12-20T03:03:18.378Z,11.00
2022-12-20T03:05:47.552Z,10.90
2022-12-20T03:08:14.270Z,10.90
2022-12-20T03:10:41.374Z,10.90
2022-12-20T03:13:08.170Z,10.90
2022-12-20T03:15:35.249Z,10.90
2022-12-20T03:18:02.842Z,11.00
2022-12-20T03:20:29.922Z,11.00
2022-12-20T03:22:56.622Z,11.00
2022-12-20T03:25:26.849Z,11.00
2022-12-20T03:27:53.730Z,11.00
2022-12-20T03:30:20.652Z,11.00
2022-12-20T03:32:47.386Z,10.90
2022-12-20T03:35:14.265Z,10.80
2022-12-20T03:37:41.088Z,10.90
2022-12-20T03:40:08.855Z,10.90
2022-12-20T03:42:36.362Z,10.90
2022-12-20T03:45:04.251Z,10.80
2022-12-20T03:47:31.011Z,10.80
2022-12-20T03:49:57.775Z,10.80
2022-12-20T03:52:24.540Z,10.80
2022-12-20T03:54:51.367Z,10.80
2022-12-20T03:57:18.111Z,10.70
2022-12-20T03:59:44.853Z,10.70
2022-12-20T04:02:11.710Z,10.70
2022-12-20T04:04:38.538Z,10.70
2022-12-20T04:07:05.240Z,10.70
2022-12-20T04:09:31.979Z,10.70
2022-12-20T04:11:58.695Z,10.60
2022-12-20T04:14:25.406Z,10.60
2022-12-20T04:16:52.280Z,10.60
2022-12-20T04:19:19.006Z,10.60
2022-12-20T04:21:46.012Z,10.60
2022-12-20T04:24:12.731Z,10.70
2022-12-20T04:26:39.432Z,10.70
2022-12-20T04:29:06.209Z,10.70
2022-12-20T04:31:32.958Z,10.60
2022-12-20T04:33:59.707Z,10.70
2022-12-20T04:36:26.622Z,10.70
2022-12-20T04:38:54.123Z,10.60
2022-12-20T04:41:23.830Z,10.50
2022-12-20T04:43:52.313Z,10.50
2022-12-20T04:46:19.976Z,10.50
2022-12-20T04:48:57.189Z,10.40
2022-12-20T04:51:25.782Z,10.30
2022-12-20T04:53:52.676Z,10.30
2022-12-20T04:56:21.244Z,10.30
2022-12-20T04:58:50.867Z,10.30
2022-12-20T05:01:19.087Z,10.30
2022-12-20T05:03:47.223Z,10.20
2022-12-20T05:06:14.658Z,10.20
2022-12-20T05:08:41.850Z,10.20
2022-12-20T05:11:09.089Z,10.10
2022-12-20T05:13:36.162Z,10.00
2022-12-20T05:16:03.857Z,10.00
2022-12-20T05:18:30.730Z,10.00
2022-12-20T05:21:17.793Z,10.00
2022-12-20T05:24:03.072Z,10.00
2022-12-20T05:26:32.024Z,9.90
2022-12-20T05:28:58.777Z,9.90
2022-12-20T05:31:25.593Z,10.00
2022-12-20T05:33:52.376Z,9.90
2022-12-20T05:36:19.073Z,9.80
2022-12-20T05:38:46.386Z,9.80
2022-12-20T05:41:13.159Z,9.80
2022-12-20T05:43:40.478Z,9.80
2022-12-20T05:46:08.031Z,9.80
2022-12-20T05:48:34.810Z,9.90
2022-12-20T05:51:02.190Z,9.80
2022-12-20T05:53:28.986Z,9.80
2022-12-20T05:55:55.877Z,9.70
2022-12-20T05:58:22.821Z,9.80
2022-12-20T06:00:49.979Z,9.80
2022-12-20T06:03:17.437Z,9.90
2022-12-20T06:05:44.788Z,9.90
2022-12-20T06:08:12.356Z,9.80
2022-12-20T06:10:40.886Z,9.80
2022-12-20T06:13:08.726Z,9.80
2022-12-20T06:15:35.691Z,9.80
2022-12-20T06:18:02.471Z,9.90
2022-12-20T06:20:29.788Z,9.90
2022-12-20T06:22:56.577Z,9.90
2022-12-20T06:25:23.514Z,9.90
2022-12-20T06:27:50.280Z,9.90
2022-12-20T06:30:18.032Z,9.90
2022-12-20T06:32:44.839Z,9.80
2022-12-20T06:35:12.103Z,9.90
2022-12-20T06:37:40.672Z,9.90
2022-12-20T06:40:12.614Z,10.00
2022-12-20T06:42:39.873Z,10.00
2022-12-20T06:45:07.242Z,10.00
2022-12-20T06:47:33.972Z,10.00
2022-12-20T06:50:00.657Z,10.00
2022-12-20T06:52:27.480Z,10.00
2022-12-20T06:54:54.557Z,9.90
2022-12-20T06:57:21.641Z,9.90
2022-12-20T06:59:48.477Z,9.90
2022-12-20T07:02:15.586Z,9.90
2022-12-20T07:04:42.824Z,9.80
2022-12-20T07:07:09.715Z,9.90
2022-12-20T07:09:37.939Z,9.80
2022-12-20T07:12:05.428Z,9.90
2022-12-20T07:14:32.311Z,10.00
2022-12-20T07:16:59.271Z,9.90
2022-12-20T07:19:26.263Z,9.90
2022-12-20T07:21:52.960Z,10.00
2022-12-20T07:24:20.020Z,10.10
2022-12-20T07:26:46.797Z,10.00
2022-12-20T07:29:16.062Z,10.10
2022-12-20T07:31:43.132Z,10.10
2022-12-20T07:34:10.983Z,10.10
2022-12-20T07:36:37.967Z,10.10
2022-12-20T07:39:04.803Z,10.20
2022-12-20T07:41:31.635Z,10.10
2022-12-20T07:43:59.652Z,10.20
2022-12-20T07:46:26.840Z,10.10
2022-12-20T07:48:53.755Z,10.10
2022-12-20T07:51:28.815Z,10.20
2022-12-20T07:54:03.534Z,10.20
2022-12-20T07:56:40.713Z,10.30
2022-12-20T07:59:09.299Z,10.40
2022-12-20T08:01:36.413Z,10.30
2022-12-20T08:04:08.745Z,10.40
2022-12-20T08:06:37.657Z,10.40
2022-12-20T08:09:05.912Z,10.50
2022-12-20T08:11:35.221Z,10.60
2022-12-20T08:14:02.297Z,10.80
2022-12-20T08:16:29.085Z,10.90
2022-12-20T08:18:56.067Z,11.10
2022-12-20T08:21:22.803Z,11.10
2022-12-20T08:23:49.542Z,11.30
2022-12-20T08:26:16.426Z,11.30
2022-12-20T08:28:43.129Z,11.40
2022-12-20T08:31:10.726Z,11.50
2022-12-20T08:33:38.466Z,11.50
2022-12-20T08:36:09.808Z,11.50
2022-12-20T08:38:36.801Z,11.50
2022-12-20T08:41:12.160Z,11.50
2022-12-20T08:43:39.877Z,11.50
2022-12-20T08:46:08.175Z,11.50
2022-12-20T08:48:35.082Z,11.50
2022-12-20T08:51:08.250Z,11.50
2022-12-20T08:53:36.206Z,11.50
2022-12-20T08:56:15.085Z,11.50
2022-12-20T08:58:42.992Z,11.50
2022-12-20T09:01:12.514Z,11.50
2022-12-20T09:03:40.475Z,11.50
2022-12-20T09:06:10.388Z,11.50
2022-12-20T09:08:38.772Z,11.50
2022-12-20T09:11:08.714Z,11.50
2022-12-20T09:13:43.175Z,11.40
2022-12-20T09:16:11.958Z,11.50
2022-12-20T09:18:38.813Z,11.50
2022-12-20T09:21:07.420Z,11.50
2022-12-20T09:23:35.560Z,11.50
2022-12-20T09:26:04.124Z,11.60
2022-12-20T09:28:31.809Z,11.60
2022-12-20T09:31:04.053Z,11.60
2022-12-20T09:33:32.153Z,11.50
2022-12-20T09:36:00.656Z,11.60
2022-12-20T09:38:28.983Z,11.60
2022-12-20T09:41:01.021Z,11.60
2022-12-20T09:43:28.400Z,11.70
2022-12-20T09:45:58.509Z,11.70
2022-12-20T09:48:35.595Z,11.80
2022-12-20T09:51:11.446Z,11.70
2022-12-20T09:53:56.833Z,11.80
2022-12-20T09:56:44.879Z,11.80
2022-12-20T09:59:14.877Z,11.80
2022-12-20T10:01:47.099Z,11.70
2022-12-20T10:04:33.880Z,11.70
2022-12-20T10:07:16.867Z,11.80
2022-12-20T10:10:03.799Z,11.90
2022-12-20T10:12:46.315Z,12.00
2022-12-20T10:15:47.585Z,12.10
2022-12-20T10:18:38.344Z,12.10
2022-12-20T10:21:15.603Z,12.10
2022-12-20T10:24:03.811Z,12.20
2022-12-20T10:26:33.004Z,12.30
2022-12-20T10:29:00.064Z,12.30
2022-12-20T10:31:27.886Z,12.30
2022-12-20T10:33:55.806Z,12.30
2022-12-20T10:36:27.309Z,12.40
2022-12-20T10:39:05.901Z,12.40
2022-12-20T10:41:44.701Z,12.50
2022-12-20T10:44:26.424Z,12.40
2022-12-20T10:46:55.945Z,12.30
2022-12-20T10:49:41.069Z,12.30
2022-12-20T10:52:07.890Z,12.30
2022-12-20T10:54:55.356Z,12.30
2022-12-20T10:57:28.978Z,12.30
2022-12-20T11:00:01.346Z,12.40
2022-12-20T11:02:40.684Z,12.50
2022-12-20T11:05:11.944Z,12.50
2022-12-20T11:10:45.144Z,12.50
2022-12-20T11:13:30.552Z,12.50
2022-12-20T11:16:01.496Z,12.50
2022-12-20T11:18:51.207Z,12.50
2022-12-20T11:21:29.379Z,12.60
2022-12-20T11:24:12.253Z,12.60
2022-12-20T11:27:03.411Z,12.70
2022-12-20T11:29:45.625Z,12.70
2022-12-20T11:32:38.798Z,12.70
2022-12-20T11:35:07.806Z,12.70
2022-12-20T11:38:07.263Z,12.70
2022-12-20T11:41:11.741Z,12.70
2022-12-20T11:47:30.509Z,12.80
2022-12-20T11:50:22.575Z,12.80
2022-12-20T11:52:58.679Z,12.80
2022-12-20T11:55:30.635Z,12.90
2022-12-20T11:58:21.078Z,12.90
2022-12-20T12:01:05.480Z,13.00
2022-12-20T12:03:39.950Z,13.00
2022-12-20T12:06:27.230Z,13.00
2022-12-20T12:09:17.423Z,13.00
2022-12-20T12:12:09.882Z,12.90
2022-12-20T12:15:08.734Z,12.80
2022-12-20T12:17:47.557Z,12.60
2022-12-20T12:20:50.255Z,12.50
2022-12-20T12:23:26.850Z,12.20
2022-12-20T12:25:54.258Z,12.00
2022-12-20T12:28:23.639Z,11.80
2022-12-20T12:30:59.863Z,11.70
2022-12-20T12:33:38.904Z,11.60
2022-12-20T12:36:39.959Z,11.60
2022-12-20T12:39:20.037Z,11.50
2022-12-20T12:42:20.306Z,11.50
2022-12-20T12:45:03.942Z,11.40
2022-12-20T12:47:33.419Z,11.40
2022-12-20T12:50:00.696Z,11.30
2022-12-20T12:52:43.442Z,11.30
2022-12-20T12:55:44.143Z,11.20
2022-12-20T12:58:23.302Z,11.10
2022-12-20T13:00:56.228Z,11.10
2022-12-20T13:04:01.247Z,11.00
2022-12-20T13:06:30.800Z,11.00
2022-12-20T13:09:00.407Z,11.00
2022-12-20T13:11:39.180Z,10.90
2022-12-20T13:14:12.830Z,10.90
2022-12-20T13:17:10.885Z,10.90
2022-12-20T13:19:29.629Z,10.80
2022-12-20T13:21:57.853Z,10.80
2022-12-20T13:24:50.587Z,10.80
2022-12-20T13:27:34.177Z,10.80
2022-12-20T13:30:10.482Z,10.70
2022-12-20T13:32:56.138Z,10.70
2022-12-20T13:35:25.917Z,10.70
2022-12-20T13:38:07.661Z,10.70
2022-12-20T13:40:52.673Z,10.70
2022-12-20T13:43:22.164Z,10.60
2022-12-20T13:46:11.346Z,10.60
2022-12-20T13:48:38.113Z,10.60
2022-12-20T13:51:07.824Z,10.60
2022-12-20T13:53:35.032Z,10.60
2022-12-20T13:56:26.798Z,10.60
2022-12-20T13:58:59.456Z,10.70
2022-12-20T14:01:26.840Z,10.60
2022-12-20T14:03:54.301Z,10.60
2022-12-20T14:06:26.763Z,10.60
2022-12-20T14:08:54.472Z,10.60
2022-12-20T14:11:23.996Z,10.60
2022-12-20T14:14:01.058Z,10.50
2022-12-20T14:16:30.873Z,10.50
2022-12-20T14:18:57.546Z,10.60
2022-12-20T14:21:25.928Z,10.50
2022-12-20T14:23:55.472Z,10.50
2022-12-20T14:26:28.536Z,10.50
2022-12-20T14:28:57.980Z,10.50
2022-12-20T14:31:33.647Z,10.50
2022-12-20T14:34:10.944Z,10.50
2022-12-20T14:36:39.447Z,10.50
2022-12-20T14:39:29.673Z,10.50
2022-12-20T14:42:03.586Z,10.50
2022-12-20T14:44:31.789Z,10.40
2022-12-20T14:47:13.494Z,10.40
2022-12-20T14:49:40.828Z,10.40
2022-12-20T14:52:20.722Z,10.50
2022-12-20T14:55:07.756Z,10.40
2022-12-20T14:57:35.275Z,10.50
2022-12-20T15:00:14.012Z,10.50
2022-12-20T15:02:46.612Z,10.40
2022-12-20T15:05:35.313Z,10.40
2022-12-20T15:08:20.029Z,10.40
2022-12-20T15:11:10.789Z,10.40
2022-12-20T15:13:39.309Z,10.40
2022-12-20T15:16:18.498Z,10.40
2022-12-20T15:18:46.367Z,10.40
2022-12-20T15:21:15.373Z,10.30
2022-12-20T15:23:47.319Z,10.40
2022-12-20T15:26:18.866Z,10.30
2022-12-20T15:28:46.499Z,10.30
2022-12-20T15:31:15.155Z,10.30
2022-12-20T15:33:43.093Z,10.30
2022-12-20T15:36:22.008Z,10.30
2022-12-20T15:41:36.905Z,10.30
2022-12-20T15:44:06.895Z,10.30
2022-12-20T15:46:33.860Z,10.30
2022-12-20T15:49:00.703Z,10.30
2022-12-20T15:51:35.953Z,10.30
2022-12-20T15:54:05.262Z,10.30
2022-12-20T15:56:32.090Z,10.30
2022-12-20T15:58:58.807Z,10.20
2022-12-20T16:01:40.462Z,10.20
2022-12-20T16:04:13.661Z,10.20
2022-12-20T16:06:40.543Z,10.20
2022-12-20T16:09:07.263Z,10.20
2022-12-20T16:11:33.987Z,10.30
2022-12-20T16:14:00.778Z,10.20
2022-12-20T16:16:33.531Z,10.30
2022-12-20T16:19:01.429Z,10.30
2022-12-20T16:21:32.457Z,10.30
2022-12-20T16:23:59.435Z,10.30
2022-12-20T16:26:26.910Z,10.30
2022-12-20T16:28:55.493Z,10.30
2022-12-20T16:31:31.108Z,10.30
2022-12-20T16:33:59.644Z,10.30
2022-12-20T16:36:26.730Z,10.30
2022-12-20T16:38:56.505Z,10.30
2022-12-20T16:41:27.479Z,10.30
2022-12-20T16:43:56.011Z,10.30
2022-12-20T16:46:27.197Z,10.30
2022-12-20T16:48:55.311Z,10.20
2022-12-20T16:51:26.781Z,10.30
2022-12-20T16:56:44.426Z,10.20
2022-12-20T16:59:21.360Z,10.20
2022-12-20T17:01:52.307Z,10.20
2022-12-20T17:04:20.329Z,10.20
2022-12-20T17:06:47.397Z,10.20
2022-12-20T17:09:16.303Z,10.20
2022-12-20T17:11:43.438Z,10.20
2022-12-20T17:14:13.121Z,10.20
2022-12-20T17:16:41.189Z,10.20
2022-12-20T17:19:09.161Z,10.30
2022-12-20T17:24:22.503Z,10.30
2022-12-20T17:26:49.595Z,10.30
2022-12-20T17:29:17.862Z,10.20
2022-12-20T17:31:46.699Z,10.30
2022-12-20T17:34:18.972Z,10.20
2022-12-20T17:36:46.986Z,10.20
2022-12-20T17:39:13.898Z,10.20
2022-12-20T17:41:42.689Z,10.20
2022-12-20T17:44:18.534Z,10.20
2022-12-20T17:46:45.720Z,10.20
2022-12-20T17:49:12.697Z,10.20
2022-12-20T17:51:39.722Z,10.20
2022-12-20T17:54:06.865Z,10.30
2022-12-20T17:56:36.822Z,10.30
2022-12-20T17:59:07.226Z,10.30
2022-12-20T18:01:35.772Z,10.30
2022-12-20T18:04:06.854Z,10.30
2022-12-20T18:06:35.344Z,10.30
2022-12-20T18:09:02.006Z,10.30
2022-12-20T18:11:29.001Z,10.30
2022-12-20T18:13:58.433Z,10.30
2022-12-20T18:16:31.733Z,10.20
2022-12-20T18:18:58.704Z,10.20
2022-12-20T18:21:26.648Z,10.20
2022-12-20T18:23:54.555Z,10.20
2022-12-20T18:26:26.197Z,10.20
2022-12-20T18:29:02.853Z,10.30
2022-12-20T18:31:32.422Z,10.30
2022-12-20T18:34:00.236Z,10.20
2022-12-20T18:36:29.272Z,10.20
2022-12-20T18:38:58.551Z,10.20
2022-12-20T18:41:28.155Z,10.20
2022-12-20T18:43:58.932Z,10.30
2022-12-20T18:46:26.364Z,10.30
2022-12-20T18:48:55.367Z,10.30
2022-12-20T18:51:26.228Z,10.30
2022-12-20T18:53:55.849Z,10.30
2022-12-20T18:56:26.180Z,10.30
2022-12-20T18:58:53.231Z,10.30
2022-12-20T19:01:22.974Z,10.30
2022-12-20T19:03:51.339Z,10.30
2022-12-20T19:06:19.478Z,10.30
2022-12-20T19:08:46.441Z,10.40
2022-12-20T19:11:20.858Z,10.40
2022-12-20T19:13:47.989Z,10.40
2022-12-20T19:16:20.811Z,10.40
2022-12-20T19:18:48.118Z,10.40
2022-12-20T19:21:21.739Z,10.40
2022-12-20T19:23:51.411Z,10.40
2022-12-20T19:26:21.881Z,10.40
2022-12-20T19:28:49.213Z,10.40
2022-12-20T19:31:23.835Z,10.40
2022-12-20T19:33:53.224Z,10.40
2022-12-20T19:36:21.193Z,10.40
2022-12-20T19:38:52.893Z,10.30
2022-12-20T19:41:19.964Z,10.40
2022-12-20T19:43:47.950Z,10.40
2022-12-20T19:46:15.480Z,10.40
2022-12-20T19:48:42.291Z,10.40
2022-12-20T19:51:14.113Z,10.40
2022-12-20T19:53:43.244Z,10.40
2022-12-20T19:56:11.242Z,10.40
2022-12-20T19:58:38.706Z,10.40
2022-12-20T20:01:07.164Z,10.40
2022-12-20T20:03:35.061Z,10.30
2022-12-20T20:06:02.174Z,10.30
2022-12-20T20:08:29.014Z,10.30
2022-12-20T20:10:57.775Z,10.40
2022-12-20T20:13:25.232Z,10.30
2022-12-20T20:16:03.123Z,10.20
2022-12-20T20:18:32.535Z,10.30
2022-12-20T20:20:59.215Z,10.20
2022-12-20T20:23:27.301Z,10.30
2022-12-20T20:26:00.007Z,10.30
2022-12-20T20:28:31.897Z,10.30
2022-12-20T20:31:01.100Z,10.40
2022-12-20T20:33:28.039Z,10.30
2022-12-20T20:35:56.394Z,10.30
2022-12-20T20:38:23.703Z,10.30
2022-12-20T20:40:50.804Z,10.30
2022-12-20T20:43:18.413Z,10.30
2022-12-20T20:45:45.318Z,10.30
2022-12-20T20:48:12.165Z,10.30
2022-12-20T20:50:38.931Z,10.20
2022-12-20T20:53:07.145Z,10.20
2022-12-20T20:55:36.781Z,10.30
2022-12-20T20:58:03.728Z,10.40
2022-12-20T21:00:31.948Z,10.30
2022-12-20T21:02:59.772Z,10.30
2022-12-20T21:08:15.565Z,10.20
2022-12-20T21:10:43.089Z,10.30
2022-12-20T21:13:09.919Z,10.20
2022-12-20T21:15:36.965Z,10.30
2022-12-20T21:18:03.788Z,10.20
2022-12-20T21:20:30.654Z,10.20
2022-12-20T21:22:58.294Z,10.20
2022-12-20T21:25:24.997Z,10.30
2022-12-20T21:27:51.696Z,10.30
2022-12-20T21:30:18.452Z,10.20
2022-12-20T21:32:45.881Z,10.20
2022-12-20T21:35:12.661Z,10.20
2022-12-20T21:37:39.403Z,10.20
2022-12-20T21:40:06.967Z,10.20
2022-12-20T21:42:33.694Z,10.20
2022-12-20T21:45:00.537Z,10.20
2022-12-20T21:47:27.358Z,10.10
2022-12-20T21:49:54.052Z,10.10
2022-12-20T21:52:20.794Z,10.10
2022-12-20T21:54:47.505Z,10.10
2022-12-20T21:57:14.247Z,10.10
2022-12-20T21:59:40.973Z,10.10
2022-12-20T22:02:09.899Z,10.10
2022-12-20T22:04:36.876Z,10.10
2022-12-20T22:07:03.599Z,10.10
2022-12-20T22:09:30.324Z,10.10
2022-12-20T22:11:57.084Z,10.10
2022-12-20T22:14:23.814Z,10.10
2022-12-20T22:16:50.568Z,10.00
2022-12-20T22:19:17.996Z,10.00
2022-12-20T22:21:44.765Z,10.00
2022-12-20T22:24:11.575Z,10.00
2022-12-20T22:26:41.025Z,10.00
2022-12-20T22:29:08.585Z,10.00
2022-12-20T22:31:36.548Z,10.00
2022-12-20T22:34:04.065Z,10.00
2022-12-20T22:36:31.030Z,10.00
2022-12-20T22:38:58.535Z,10.00
2022-12-20T22:41:27.278Z,10.00
2022-12-20T22:43:54.401Z,10.00
2022-12-20T22:46:21.293Z,10.00
2022-12-20T22:48:48.093Z,10.00
2022-12-20T22:51:20.310Z,10.00
2022-12-20T22:53:48.363Z,10.00
2022-12-20T22:56:17.284Z,10.00
2022-12-20T22:58:44.616Z,9.90
2022-12-20T23:01:14.528Z,9.90
2022-12-20T23:03:42.344Z,9.90
2022-12-20T23:06:15.196Z,10.00
2022-12-20T23:08:42.335Z,10.00
2022-12-20T23:11:38.332Z,9.90
2022-12-20T23:14:23.933Z,10.00
2022-12-20T23:16:50.869Z,10.00
2022-12-20T23:19:17.726Z,10.00
2022-12-20T23:22:22.752Z,10.00
2022-12-20T23:24:49.462Z,9.90
2022-12-20T23:27:16.143Z,9.90
2022-12-20T23:29:42.839Z,10.00
2022-12-20T23:32:09.648Z,10.00
2022-12-20T23:34:36.327Z,10.00
2022-12-20T23:37:03.023Z,10.00
2022-12-20T23:39:29.745Z,10.00
2022-12-20T23:41:56.406Z,10.00
2022-12-20T23:44:23.210Z,9.90
2022-12-20T23:46:49.968Z,9.90
2022-12-20T23:49:16.730Z,9.90
2022-12-20T23:51:43.445Z,9.90
2022-12-20T23:54:11.074Z,9.90
2022-12-20T23:56:37.863Z,9.90
2022-12-20T23:59:04.567Z,9.90
